Aviation Digital Data Service (ADDS)

Output produced by METARs form (1034 UTC 17 June 2019)
found at http://www.aviationweather.gov/metar/data/
 
Forecast for: EDLW (DORTMUND/WICKEDE, DE)
Text: TAF EDLW 170500Z 1706/1806 16005KT CAVOK
Forecast period: 0600 UTC 17 June 2019 to 0600 UTC 18 June 2019
Forecast type: FROM: standard forecast or significant change
Winds: from the SSE (160 degrees) at 6 MPH (5 knots; 2.6 m/s)
Visibility: 6 or more miles 10+ km)
Ceiling: unknown
Clouds: missing
Weather: NSW  (no significant weather)
Text: BECMG 1706/1708 10005KT
Forecast period: 0600 UTC 17 June 2019 to 0600 UTC 18 June 2019
Forecast type: BECOMING: Conditions expected to become as follows by 0800 UTC 17 June 2019
Winds: from the E (100 degrees) at 6 MPH (5 knots; 2.6 m/s)
Visibility: 6 or more miles 10+ km)
Ceiling: unknown
Clouds: missing
Weather: NSW  (no significant weather)